createdAt,value
2023-02-13T00:02:47.569Z,7.06
2023-02-13T00:05:51.387Z,7.20
2023-02-13T00:08:56.682Z,7.10
2023-02-13T00:12:00.498Z,6.91
2023-02-13T00:15:04.809Z,6.99
2023-02-13T00:18:08.435Z,6.80
2023-02-13T00:21:14.181Z,6.98
2023-02-13T00:24:19.325Z,6.95
2023-02-13T00:27:23.464Z,6.77
2023-02-13T00:30:27.253Z,6.83
2023-02-13T00:33:31.279Z,6.97
2023-02-13T00:36:35.500Z,7.16
2023-02-13T00:39:40.669Z,7.21
2023-02-13T00:42:44.375Z,7.24
2023-02-13T00:45:48.037Z,7.17
2023-02-13T00:48:51.635Z,7.40
2023-02-13T00:51:55.388Z,7.31
2023-02-13T00:55:01.035Z,7.35
2023-02-13T00:58:04.781Z,7.35
2023-02-13T01:01:08.579Z,7.27
2023-02-13T01:04:12.228Z,7.45
2023-02-13T01:07:16.797Z,7.35
2023-02-13T01:10:22.619Z,7.46
2023-02-13T01:13:26.435Z,7.43
2023-02-13T01:16:30.716Z,7.47
2023-02-13T01:19:34.533Z,7.61
2023-02-13T01:22:38.280Z,7.68
2023-02-13T01:25:44.278Z,7.65
2023-02-13T01:28:48.285Z,7.62
2023-02-13T01:31:52.203Z,7.71
2023-02-13T01:34:55.873Z,7.77
2023-02-13T01:37:59.532Z,7.72
2023-02-13T01:41:04.760Z,7.42
2023-02-13T01:44:41.966Z,7.20
2023-02-13T01:47:49.524Z,7.23
2023-02-13T01:50:59.112Z,7.13
2023-02-13T01:54:06.006Z,7.11
2023-02-13T01:57:16.569Z,6.93
2023-02-13T02:00:21.254Z,6.71
2023-02-13T02:03:29.054Z,6.75
2023-02-13T02:06:40.352Z,6.83
2023-02-13T02:09:46.784Z,6.72
2023-02-13T02:13:00.203Z,6.54
2023-02-13T02:16:05.359Z,6.59
2023-02-13T02:19:16.246Z,6.89
2023-02-13T02:23:00.362Z,6.57
2023-02-13T02:26:43.802Z,6.36
2023-02-13T02:30:20.595Z,6.35
2023-02-13T02:33:35.760Z,6.14
2023-02-13T02:36:58.525Z,6.19
2023-02-13T02:40:19.681Z,6.19
2023-02-13T02:43:39.840Z,6.17
2023-02-13T02:47:09.316Z,6.32
2023-02-13T02:50:41.200Z,5.96
2023-02-13T02:53:51.967Z,6.16
2023-02-13T02:57:02.191Z,6.32
2023-02-13T03:00:24.858Z,5.92
2023-02-13T03:03:47.594Z,5.47
2023-02-13T03:06:57.967Z,5.66
2023-02-13T03:10:22.397Z,5.96
2023-02-13T03:13:40.546Z,6.07
2023-02-13T03:17:02.079Z,6.17
2023-02-13T03:20:36.465Z,5.94
2023-02-13T03:23:52.915Z,5.99
2023-02-13T03:27:05.175Z,5.90
2023-02-13T03:30:18.550Z,5.97
2023-02-13T03:33:41.948Z,5.99
2023-02-13T03:37:07.527Z,5.88
2023-02-13T03:40:17.710Z,6.00
2023-02-13T03:43:21.934Z,6.20
2023-02-13T03:46:28.099Z,6.32
2023-02-13T03:50:09.215Z,6.20
2023-02-13T03:53:16.116Z,5.80
2023-02-13T03:56:40.774Z,5.94
2023-02-13T03:59:44.538Z,5.87
2023-02-13T04:02:57.404Z,5.97
2023-02-13T04:06:06.295Z,5.96
2023-02-13T04:09:10.042Z,5.85
2023-02-13T04:12:20.468Z,6.08
2023-02-13T04:15:30.359Z,5.84
2023-02-13T04:18:35.612Z,5.86
2023-02-13T04:21:41.601Z,5.84
2023-02-13T04:24:45.232Z,5.79
2023-02-13T04:27:50.227Z,5.66
2023-02-13T04:30:54.077Z,5.62
2023-02-13T04:33:58.036Z,5.63
2023-02-13T04:37:01.612Z,5.65
2023-02-13T04:40:05.877Z,5.73
2023-02-13T04:43:11.054Z,5.74
2023-02-13T04:46:14.638Z,5.83
2023-02-13T04:49:18.166Z,5.59
2023-02-13T04:52:21.646Z,5.54
2023-02-13T04:55:25.734Z,5.22
2023-02-13T04:58:30.882Z,5.34
2023-02-13T05:01:34.588Z,5.50
2023-02-13T05:04:38.294Z,5.58
2023-02-13T05:07:43.026Z,5.25
2023-02-13T05:10:46.578Z,5.48
2023-02-13T05:13:51.651Z,5.44
2023-02-13T05:16:55.274Z,5.37
2023-02-13T05:19:59.503Z,5.42
2023-02-13T05:23:20.470Z,5.47
2023-02-13T05:26:24.078Z,5.08
2023-02-13T05:29:29.247Z,4.87
2023-02-13T05:32:32.817Z,5.04
2023-02-13T05:35:36.410Z,5.18
2023-02-13T05:38:41.455Z,4.99
2023-02-13T05:41:45.781Z,4.96
2023-02-13T05:44:50.909Z,5.02
2023-02-13T05:47:54.528Z,4.99
2023-02-13T05:50:58.466Z,4.62
2023-02-13T05:54:02.262Z,4.75
2023-02-13T05:57:06.398Z,4.87
2023-02-13T06:00:12.941Z,5.03
2023-02-13T06:03:16.778Z,5.20
2023-02-13T06:06:20.688Z,5.37
2023-02-13T06:09:24.714Z,5.26
2023-02-13T06:12:28.558Z,5.34
2023-02-13T06:15:33.759Z,5.48
2023-02-13T06:18:37.811Z,5.75
2023-02-13T06:21:41.613Z,5.80
2023-02-13T06:24:45.422Z,5.97
2023-02-13T06:27:49.736Z,6.02
2023-02-13T06:30:55.590Z,6.24
2023-02-13T06:33:59.647Z,6.39
2023-02-13T06:37:03.404Z,6.55
2023-02-13T06:40:08.694Z,6.43
2023-02-13T06:43:12.484Z,6.90
2023-02-13T06:46:17.843Z,6.87
2023-02-13T06:49:21.734Z,7.20
2023-02-13T06:52:25.743Z,7.31
2023-02-13T06:55:29.761Z,7.27
2023-02-13T06:58:34.233Z,7.68
2023-02-13T07:01:39.452Z,7.93
2023-02-13T07:04:43.264Z,8.39
2023-02-13T07:07:47.132Z,8.30
2023-02-13T07:10:50.845Z,8.56
2023-02-13T07:13:54.586Z,8.86
2023-02-13T07:17:00.165Z,9.10
2023-02-13T07:20:04.743Z,9.23
2023-02-13T07:23:08.615Z,9.54
2023-02-13T07:26:12.585Z,9.73
2023-02-13T07:29:16.345Z,9.81
2023-02-13T07:32:21.826Z,9.79
2023-02-13T07:35:25.595Z,10.02
2023-02-13T07:38:29.388Z,10.10
2023-02-13T07:41:33.135Z,10.04
2023-02-13T07:44:37.017Z,9.93
2023-02-13T07:47:42.349Z,10.03
2023-02-13T07:50:46.115Z,10.16
2023-02-13T07:53:50.012Z,10.62
2023-02-13T07:56:53.823Z,10.67
2023-02-13T07:59:57.665Z,10.54
2023-02-13T08:03:03.531Z,10.65
2023-02-13T08:06:08.872Z,10.86
2023-02-13T08:09:39.581Z,11.12
2023-02-13T08:12:44.423Z,11.44
2023-02-13T08:15:48.397Z,11.14
2023-02-13T08:18:53.722Z,11.23
2023-02-13T08:21:57.964Z,11.41
2023-02-13T08:25:01.771Z,11.44
2023-02-13T08:28:06.002Z,11.92
2023-02-13T08:31:12.756Z,12.24
2023-02-13T08:34:18.031Z,12.26
2023-02-13T08:37:21.809Z,11.95
2023-02-13T08:40:26.097Z,11.72
2023-02-13T08:43:29.880Z,12.20
2023-02-13T08:46:33.691Z,12.31
2023-02-13T08:49:38.828Z,12.60
2023-02-13T08:52:42.608Z,12.60
2023-02-13T08:55:53.869Z,12.66
2023-02-13T08:58:57.622Z,12.78
2023-02-13T09:02:01.611Z,12.83
2023-02-13T09:05:07.474Z,13.19
2023-02-13T09:08:13.912Z,13.25
2023-02-13T09:11:17.710Z,13.21
2023-02-13T09:14:22.218Z,13.21
2023-02-13T09:17:27.111Z,13.30
2023-02-13T09:20:32.274Z,13.11
2023-02-13T09:23:37.533Z,13.05
2023-02-13T09:26:41.378Z,13.21
2023-02-13T09:29:45.239Z,13.42
2023-02-13T09:32:53.636Z,13.22
2023-02-13T09:35:59.179Z,13.29
2023-02-13T09:39:03.302Z,13.26
2023-02-13T09:42:17.166Z,13.76
2023-02-13T09:45:22.636Z,13.33
2023-02-13T09:48:31.248Z,13.67
2023-02-13T09:51:37.194Z,13.65
2023-02-13T09:54:40.915Z,13.96
2023-02-13T09:57:49.134Z,14.12
2023-02-13T10:00:58.759Z,14.29
2023-02-13T10:04:29.079Z,14.05
2023-02-13T10:07:42.044Z,13.97
2023-02-13T10:10:53.519Z,13.82
2023-02-13T10:14:07.385Z,14.10
2023-02-13T10:17:16.527Z,14.34
2023-02-13T10:20:30.045Z,14.21
2023-02-13T10:23:43.995Z,14.46
2023-02-13T10:26:48.926Z,14.06
2023-02-13T10:30:07.568Z,14.79
2023-02-13T10:33:21.191Z,14.69
2023-02-13T10:36:29.269Z,14.83
2023-02-13T10:39:34.556Z,14.76
2023-02-13T10:42:46.490Z,14.77
2023-02-13T10:46:11.971Z,14.95
2023-02-13T10:49:36.378Z,15.10
2023-02-13T10:52:51.688Z,15.36
2023-02-13T10:56:13.178Z,15.41
2023-02-13T10:59:32.454Z,15.76
2023-02-13T11:02:37.335Z,15.14
2023-02-13T11:05:42.727Z,14.81
2023-02-13T11:08:49.263Z,14.89
2023-02-13T11:11:55.158Z,15.24
2023-02-13T11:15:00.568Z,14.83
2023-02-13T11:18:18.327Z,15.42
2023-02-13T11:21:25.200Z,15.70
2023-02-13T11:24:31.378Z,15.91
2023-02-13T11:27:39.955Z,15.89
2023-02-13T11:30:43.939Z,15.46
2023-02-13T11:33:47.969Z,15.34
2023-02-13T11:36:54.086Z,15.58
2023-02-13T11:40:00.264Z,15.61
2023-02-13T11:43:09.470Z,15.21
2023-02-13T11:46:20.391Z,15.53
2023-02-13T11:49:25.883Z,15.88
2023-02-13T11:52:31.153Z,16.07
2023-02-13T11:55:38.390Z,15.95
2023-02-13T11:58:44.411Z,16.04
2023-02-13T12:01:50.644Z,16.02
2023-02-13T12:04:56.105Z,16.05
2023-02-13T12:08:02.311Z,16.25
2023-02-13T12:11:16.392Z,15.90
2023-02-13T12:14:23.758Z,15.35
2023-02-13T12:17:32.660Z,15.71
2023-02-13T12:20:47.805Z,15.89
2023-02-13T12:23:59.381Z,15.82
2023-02-13T12:27:16.452Z,15.78
2023-02-13T12:30:40.453Z,15.99
2023-02-13T12:34:25.693Z,15.34
2023-02-13T12:37:44.546Z,15.13
2023-02-13T12:41:07.721Z,15.46
2023-02-13T12:44:31.661Z,15.50
2023-02-13T12:47:45.735Z,15.55
2023-02-13T12:51:04.487Z,15.96
2023-02-13T12:54:25.407Z,15.95
2023-02-13T12:57:47.072Z,16.15
2023-02-13T13:01:03.073Z,15.36
2023-02-13T13:04:18.447Z,15.58
2023-02-13T13:07:49.687Z,15.47
2023-02-13T13:11:04.153Z,15.63
2023-02-13T13:14:15.868Z,15.48
2023-02-13T13:17:33.983Z,15.33
2023-02-13T13:21:00.169Z,15.38
2023-02-13T13:24:11.497Z,15.53
2023-02-13T13:27:22.582Z,15.63
2023-02-13T13:30:30.444Z,15.71
2023-02-13T13:33:36.243Z,15.70
2023-02-13T13:36:50.068Z,15.78
2023-02-13T13:39:59.051Z,15.74
2023-02-13T13:43:09.842Z,15.25
2023-02-13T13:46:20.398Z,15.47
2023-02-13T13:49:36.610Z,15.45
2023-02-13T13:52:41.927Z,15.49
2023-02-13T13:56:08.907Z,15.42
2023-02-13T13:59:19.861Z,14.98
2023-02-13T14:02:44.246Z,14.91
2023-02-13T14:06:03.519Z,14.82
2023-02-13T14:09:29.638Z,14.64
2023-02-13T14:12:48.107Z,14.73
2023-02-13T14:15:55.384Z,14.80
2023-02-13T14:18:59.322Z,14.19
2023-02-13T14:22:32.655Z,13.78
2023-02-13T14:25:38.844Z,14.07
2023-02-13T14:28:44.292Z,14.29
2023-02-13T14:32:01.559Z,14.42
2023-02-13T14:35:17.841Z,14.43
2023-02-13T14:38:26.481Z,14.39
2023-02-13T14:41:59.153Z,14.39
2023-02-13T14:45:05.612Z,14.37
2023-02-13T14:48:15.450Z,14.07
2023-02-13T14:51:29.011Z,13.79
2023-02-13T14:54:35.884Z,13.84
2023-02-13T14:57:45.545Z,13.52
2023-02-13T15:00:56.785Z,13.67
2023-02-13T15:04:07.111Z,13.60
2023-02-13T15:07:17.483Z,13.32
2023-02-13T15:10:35.578Z,13.13
2023-02-13T15:13:41.281Z,12.90
2023-02-13T15:16:47.707Z,12.68
2023-02-13T15:19:54.362Z,12.68
2023-02-13T15:22:59.397Z,12.57
2023-02-13T15:26:05.225Z,12.66
2023-02-13T15:29:27.866Z,12.47
2023-02-13T15:32:37.173Z,12.22
2023-02-13T15:35:41.256Z,12.18
2023-02-13T15:38:45.073Z,12.05
2023-02-13T15:41:52.072Z,11.79
2023-02-13T15:44:59.844Z,11.47
2023-02-13T15:48:03.780Z,11.35
2023-02-13T15:51:07.745Z,11.26
2023-02-13T15:54:25.775Z,11.29
2023-02-13T15:57:30.305Z,11.38
2023-02-13T16:00:38.193Z,11.34
2023-02-13T16:03:44.977Z,11.43
2023-02-13T16:06:50.906Z,11.40
2023-02-13T16:10:17.696Z,11.46
2023-02-13T16:13:21.540Z,11.40
2023-02-13T16:16:27.679Z,11.35
2023-02-13T16:19:36.639Z,11.48
2023-02-13T16:22:45.855Z,11.30
2023-02-13T16:25:50.251Z,11.27
2023-02-13T16:28:55.973Z,11.29
2023-02-13T16:32:14.207Z,11.32
2023-02-13T16:35:28.313Z,11.17
2023-02-13T16:38:35.956Z,11.34
2023-02-13T16:41:39.885Z,11.26
2023-02-13T16:44:43.766Z,11.15
2023-02-13T16:47:49.077Z,11.29
2023-02-13T16:50:57.413Z,11.07
2023-02-13T16:54:02.624Z,11.08
2023-02-13T16:57:18.973Z,11.10
2023-02-13T17:00:27.958Z,11.07
2023-02-13T17:03:34.536Z,10.95
2023-02-13T17:06:38.588Z,10.83
2023-02-13T17:09:42.424Z,10.83
2023-02-13T17:12:47.098Z,10.50
2023-02-13T17:15:52.128Z,10.67
2023-02-13T17:18:57.447Z,10.70
2023-02-13T17:22:01.346Z,10.53
2023-02-13T17:25:08.422Z,10.27
2023-02-13T17:28:15.848Z,9.83
2023-02-13T17:31:19.777Z,9.93
2023-02-13T17:34:25.067Z,9.92
2023-02-13T17:37:30.209Z,10.03
2023-02-13T17:40:34.066Z,9.93
2023-02-13T17:43:37.921Z,9.74
2023-02-13T17:46:42.122Z,9.92
2023-02-13T17:49:47.975Z,9.72
2023-02-13T17:52:51.982Z,9.64
2023-02-13T17:55:55.815Z,9.60
2023-02-13T17:58:59.630Z,9.51
2023-02-13T18:02:03.558Z,9.42
2023-02-13T18:05:09.915Z,9.26
2023-02-13T18:08:13.675Z,8.92
2023-02-13T18:11:17.405Z,8.74
2023-02-13T18:14:21.209Z,8.73
2023-02-13T18:17:24.953Z,8.60
2023-02-13T18:20:30.245Z,8.69
2023-02-13T18:23:34.063Z,8.66
2023-02-13T18:26:37.910Z,8.59
2023-02-13T18:29:41.711Z,8.44
2023-02-13T18:32:45.517Z,8.45
2023-02-13T18:35:50.813Z,8.37
2023-02-13T18:38:54.679Z,8.73
2023-02-13T18:41:58.564Z,8.60
2023-02-13T18:45:02.333Z,8.62
2023-02-13T18:48:08.905Z,8.44
2023-02-13T18:51:39.117Z,8.65
2023-02-13T18:54:42.908Z,8.61
2023-02-13T18:57:46.705Z,8.51
2023-02-13T19:00:50.548Z,8.54
2023-02-13T19:03:55.688Z,8.51
2023-02-13T19:07:00.916Z,8.31
2023-02-13T19:10:04.916Z,8.51
2023-02-13T19:13:08.696Z,8.51
2023-02-13T19:16:15.786Z,8.63
2023-02-13T19:19:19.649Z,8.20
2023-02-13T19:22:24.917Z,8.37
2023-02-13T19:25:28.766Z,8.40
2023-02-13T19:28:32.587Z,8.37
2023-02-13T19:31:36.729Z,8.23
2023-02-13T19:34:40.527Z,8.28
2023-02-13T19:37:45.841Z,8.08
2023-02-13T19:40:49.646Z,7.61
2023-02-13T19:43:53.856Z,7.71
2023-02-13T19:46:57.798Z,7.69
2023-02-13T19:50:01.606Z,7.65
2023-02-13T19:53:07.980Z,7.84
2023-02-13T19:56:14.498Z,7.66
2023-02-13T19:59:18.359Z,7.67
2023-02-13T20:02:22.669Z,7.57
2023-02-13T20:05:26.467Z,7.35
2023-02-13T20:08:31.794Z,7.38
2023-02-13T20:11:35.785Z,7.33
2023-02-13T20:14:39.547Z,7.48
2023-02-13T20:17:43.284Z,7.26
2023-02-13T20:20:47.086Z,7.22
2023-02-13T20:23:53.426Z,7.35
2023-02-13T20:26:59.162Z,7.37
2023-02-13T20:30:06.829Z,7.50
2023-02-13T20:33:11.636Z,7.38
2023-02-13T20:36:17.056Z,7.44
2023-02-13T20:39:22.385Z,7.45
2023-02-13T20:42:26.408Z,7.71
2023-02-13T20:45:30.189Z,7.65
2023-02-13T20:48:36.118Z,7.58
2023-02-13T20:51:40.351Z,7.57
2023-02-13T20:54:45.692Z,7.44
2023-02-13T20:57:49.491Z,7.52
2023-02-13T21:00:53.347Z,7.51
2023-02-13T21:03:58.091Z,7.28
2023-02-13T21:07:01.913Z,7.37
2023-02-13T21:10:08.344Z,7.28
2023-02-13T21:13:12.247Z,7.32
2023-02-13T21:16:18.028Z,7.04
2023-02-13T21:19:22.309Z,7.20
2023-02-13T21:22:26.187Z,7.00
2023-02-13T21:25:31.419Z,7.03
2023-02-13T21:28:35.950Z,7.06
2023-02-13T21:31:44.434Z,7.10
2023-02-13T21:34:48.313Z,6.95
2023-02-13T21:37:52.137Z,7.02
2023-02-13T21:40:57.953Z,6.97
2023-02-13T21:44:01.910Z,6.98
2023-02-13T21:47:07.175Z,7.07
2023-02-13T21:50:11.708Z,6.86
2023-02-13T21:53:15.500Z,6.91
2023-02-13T21:56:22.218Z,6.85
2023-02-13T21:59:26.059Z,6.85
2023-02-13T22:02:30.020Z,6.79
2023-02-13T22:05:33.903Z,6.99
2023-02-13T22:08:37.827Z,7.13
2023-02-13T22:11:43.536Z,7.15
2023-02-13T22:14:47.279Z,7.11
2023-02-13T22:17:51.145Z,7.19
2023-02-13T22:20:55.575Z,7.11
2023-02-13T22:23:59.932Z,7.10
2023-02-13T22:27:05.434Z,6.81
2023-02-13T22:30:10.088Z,7.19
2023-02-13T22:33:13.905Z,7.26
2023-02-13T22:36:22.313Z,7.07
2023-02-13T22:39:26.346Z,6.92
2023-02-13T22:42:31.930Z,6.74
2023-02-13T22:45:36.445Z,6.66
2023-02-13T22:48:41.042Z,6.71
2023-02-13T22:51:44.745Z,6.54
2023-02-13T22:54:48.602Z,6.63
2023-02-13T22:57:54.637Z,6.44
2023-02-13T23:00:58.607Z,6.11
2023-02-13T23:04:02.618Z,5.95
2023-02-13T23:07:06.387Z,5.89
2023-02-13T23:10:10.663Z,5.86
2023-02-13T23:13:14.948Z,5.73
2023-02-13T23:16:18.841Z,6.15
2023-02-13T23:19:22.085Z,5.94
2023-02-13T23:22:25.897Z,6.22
2023-02-13T23:25:29.665Z,6.03
2023-02-13T23:28:35.097Z,6.37
2023-02-13T23:31:39.106Z,6.06
2023-02-13T23:34:42.986Z,6.38
2023-02-13T23:37:46.728Z,6.38
2023-02-13T23:40:50.498Z,6.20
2023-02-13T23:43:55.903Z,6.38
2023-02-13T23:46:59.595Z,6.04
2023-02-13T23:50:03.354Z,6.08
2023-02-13T23:53:06.932Z,6.16
2023-02-13T23:56:10.788Z,5.98
2023-02-13T23:59:17.594Z,6.07
